Time;durP1;ratioP1;P1;durP2;ratioP2;P2;SDS_P1;SDS_P2;PMS_P1;PMS_P2;Temp;Humidity;BMP_temperature;BMP_pressure;BME280_temperature;BME280_humidity;BME280_pressure;Samples;Min_cycle;Max_cycle;Signal;HPM_P1;HPM_P2
2023/05/31 00:01:37;;;;;;;4.83;2.07;;;;;;;14.54;40.37;95954.81;6306276;22;20167;-78
2023/05/31 00:04:02;;;;;;;3.50;1.97;;;;;;;14.48;40.42;95950.22;6253553;22;20156;-79
2023/05/31 00:06:27;;;;;;;7.33;2.20;;;;;;;14.43;40.67;95959.34;6252906;22;20244;-77
2023/05/31 00:08:52;;;;;;;4.60;1.80;;;;;;;14.44;40.80;95952.34;6279418;22;20159;-78
2023/05/31 00:11:18;;;;;;;3.73;2.00;;;;;;;14.43;40.67;95958.53;6255185;22;20164;-79
2023/05/31 00:13:43;;;;;;;4.83;2.17;;;;;;;14.33;40.84;95950.03;6283398;22;20152;-77
2023/05/31 00:16:10;;;;;;;4.80;2.10;;;;;;;14.41;40.80;95950.06;6280905;22;20152;-79
2023/05/31 00:18:35;;;;;;;6.80;1.90;;;;;;;14.38;40.59;95960.81;6256943;22;20503;-79
2023/05/31 00:21:01;;;;;;;5.00;2.10;;;;;;;14.34;41.02;95951.66;6281807;22;20170;-79
2023/05/31 00:23:27;;;;;;;4.30;2.07;;;;;;;14.37;40.95;95949.53;6282057;22;20503;-79
2023/05/31 00:25:52;;;;;;;6.30;1.93;;;;;;;14.27;41.23;95946.25;6255409;22;20183;-80
2023/05/31 00:28:17;;;;;;;4.73;2.00;;;;;;;14.29;41.09;95944.31;6255748;22;20167;-78
2023/05/31 00:30:43;;;;;;;3.60;1.93;;;;;;;14.24;41.11;95949.22;6255565;22;20156;-79
2023/05/31 00:33:08;;;;;;;3.53;2.03;;;;;;;14.20;41.38;95942.66;6281938;22;20183;-79
2023/05/31 00:35:33;;;;;;;4.47;2.10;;;;;;;14.16;41.22;95946.56;6282541;22;20152;-79
2023/05/31 00:38:05;;;;;;;3.50;1.90;;;;;;;14.22;41.17;95942.50;6280938;22;20152;-79
2023/05/31 00:40:30;;;;;;;2.97;1.53;;;;;;;14.18;41.38;95944.63;6255500;22;20156;-79
2023/05/31 00:42:56;;;;;;;3.30;1.97;;;;;;;14.13;41.20;95946.88;6255563;22;20267;-78
2023/05/31 00:45:21;;;;;;;4.27;2.20;;;;;;;14.20;41.25;95947.06;6281148;22;20172;-79
2023/05/31 00:47:46;;;;;;;3.97;2.10;;;;;;;14.20;41.50;95949.66;6279678;22;20160;-80
2023/05/31 00:50:12;;;;;;;5.33;2.20;;;;;;;14.13;41.57;95952.09;6255760;22;20523;-77
2023/05/31 00:52:37;;;;;;;5.97;2.10;;;;;;;14.03;41.21;95949.63;6282241;22;20168;-80
2023/05/31 00:55:04;;;;;;;4.80;2.17;;;;;;;14.05;41.34;95942.47;6256872;22;20179;-79
2023/05/31 00:57:29;;;;;;;2.90;1.80;;;;;;;14.01;40.85;95942.94;6281693;22;20213;-79
2023/05/31 00:59:55;;;;;;;3.73;1.93;;;;;;;14.06;41.72;95944.09;6255529;22;20156;-79
2023/05/31 01:02:20;;;;;;;3.43;1.57;;;;;;;13.98;41.46;95948.47;6281880;22;20560;-78
2023/05/31 01:04:46;;;;;;;3.87;2.07;;;;;;;13.97;41.25;95942.44;6282356;22;20582;-80
2023/05/31 01:07:11;;;;;;;4.53;2.27;;;;;;;13.97;41.19;95945.06;6256328;22;20582;-79
2023/05/31 01:09:42;;;;;;;2.80;1.57;;;;;;;14.00;41.15;95942.13;6309304;22;20494;-79
2023/05/31 01:12:21;;;;;;;6.20;2.03;;;;;;;13.97;41.34;95944.25;6257662;22;20521;-80
2023/05/31 01:15:00;;;;;;;3.63;2.10;;;;;;;13.99;41.27;95944.91;6309848;22;20147;-79
2023/05/31 01:17:34;;;;;;;3.57;1.80;;;;;;;14.01;41.34;95945.53;6254310;22;20189;-79
2023/05/31 01:20:09;;;;;;;5.93;2.00;;;;;;;13.87;41.59;95939.97;6255729;22;20501;-80
2023/05/31 01:23:02;;;;;;;2.97;1.57;;;;;;;13.89;41.58;95945.84;6308203;22;20612;-80
2023/05/31 01:26:12;;;;;;;3.30;2.17;;;;;;;13.88;41.56;95944.22;6306600;22;20686;-80
2023/05/31 01:28:38;;;;;;;4.87;2.07;;;;;;;13.67;42.43;95949.00;6263521;22;20151;-80
2023/05/31 01:31:07;;;;;;;5.97;2.30;;;;;;;13.69;42.12;95944.44;6254989;22;20586;-80
2023/05/31 01:33:33;;;;;;;5.00;2.03;;;;;;;13.71;42.34;95942.53;6280868;22;20618;-79
2023/05/31 01:35:59;;;;;;;3.70;2.07;;;;;;;13.57;42.92;95950.94;6254612;22;20159;-79
2023/05/31 01:38:24;;;;;;;3.03;1.80;;;;;;;13.55;42.71;95951.09;6255143;22;20210;-80
2023/05/31 01:40:50;;;;;;;3.40;1.93;;;;;;;13.56;42.64;95952.72;6254614;22;20471;-80
2023/05/31 01:43:16;;;;;;;3.90;1.90;;;;;;;13.51;42.98;95948.94;6280862;22;20253;-79
2023/05/31 01:45:42;;;;;;;4.63;1.73;;;;;;;13.53;42.96;95960.06;6255130;22;20206;-79
2023/05/31 01:48:08;;;;;;;3.53;1.80;;;;;;;13.53;42.92;95955.66;6252723;22;20156;-79
2023/05/31 01:50:35;;;;;;;6.47;2.30;;;;;;;13.54;42.81;95951.25;6255661;22;20207;-78
2023/05/31 01:53:00;;;;;;;7.33;2.27;;;;;;;13.52;43.01;95953.19;6279727;22;20491;-78
2023/05/31 01:55:26;;;;;;;3.00;1.70;;;;;;;13.48;42.83;95957.91;6280690;22;20235;-79
2023/05/31 01:57:51;;;;;;;4.97;2.00;;;;;;;13.41;43.17;95950.84;6279142;22;20581;-78
2023/05/31 02:00:17;;;;;;;4.37;1.90;;;;;;;13.41;43.21;95951.66;6253935;22;20792;-79
2023/05/31 02:02:43;;;;;;;4.43;2.07;;;;;;;13.34;43.29;95948.06;6279379;22;20179;-79
2023/05/31 02:05:11;;;;;;;2.77;2.03;;;;;;;13.32;43.37;95953.41;6254359;22;20187;-79
2023/05/31 02:07:37;;;;;;;3.07;1.83;;;;;;;13.29;43.92;95951.13;6279474;22;20168;-78
2023/05/31 02:10:03;;;;;;;5.00;2.00;;;;;;;13.23;43.79;95954.31;6254426;22;20158;-79
2023/05/31 02:12:28;;;;;;;4.70;1.93;;;;;;;13.19;43.84;95945.19;6279846;22;20176;-79
2023/05/31 02:14:53;;;;;;;3.60;2.27;;;;;;;13.19;43.71;95949.56;6254974;22;20296;-79
2023/05/31 02:17:23;;;;;;;4.00;1.90;;;;;;;13.21;43.56;95940.63;6253921;22;20160;-78
2023/05/31 02:19:50;;;;;;;7.20;2.00;;;;;;;13.21;43.63;95945.03;6255392;22;20172;-77
2023/05/31 02:22:15;;;;;;;5.13;2.03;;;;;;;13.16;44.06;95936.81;6254611;22;20182;-79
2023/05/31 02:24:40;;;;;;;4.17;1.87;;;;;;;13.15;44.15;95943.00;6281349;22;20164;-80
2023/05/31 02:27:06;;;;;;;6.00;2.30;;;;;;;13.10;44.08;95940.88;6278856;22;20168;-80
2023/05/31 02:29:31;;;;;;;3.90;2.13;;;;;;;13.13;44.00;95943.16;6254079;22;20228;-80
2023/05/31 02:31:56;;;;;;;4.60;1.83;;;;;;;13.11;43.85;95939.88;6253854;22;20175;-79
2023/05/31 02:34:21;;;;;;;2.83;1.70;;;;;;;13.11;43.78;95939.06;6280448;22;20153;-79
2023/05/31 02:36:47;;;;;;;6.43;2.37;;;;;;;13.12;43.96;95935.50;6279228;22;20482;-80
2023/05/31 02:39:12;;;;;;;3.03;1.87;;;;;;;12.98;43.98;95934.25;6254907;22;20183;-80
2023/05/31 02:41:37;;;;;;;3.07;1.80;;;;;;;13.05;43.89;95935.28;6307673;22;20175;-80
2023/05/31 02:44:03;;;;;;;7.83;1.97;;;;;;;13.05;44.03;95930.06;6255072;22;20164;-79
2023/05/31 02:46:28;;;;;;;4.53;2.03;;;;;;;13.08;43.81;95939.38;6279887;22;20187;-80
2023/05/31 02:48:53;;;;;;;4.33;2.67;;;;;;;13.11;43.85;95933.84;6280269;22;20162;-80
2023/05/31 02:51:18;;;;;;;3.03;1.90;;;;;;;13.07;44.00;95946.38;6256906;22;20164;-80
2023/05/31 02:53:44;;;;;;;4.27;2.20;;;;;;;12.98;44.26;95942.06;6284010;22;20148;-80
2023/05/31 02:56:11;;;;;;;4.43;1.87;;;;;;;13.08;43.88;95945.41;6282458;22;20154;-80
2023/05/31 02:58:36;;;;;;;7.53;2.03;;;;;;;12.98;44.06;95939.47;6283859;22;20159;-80
2023/05/31 03:01:02;;;;;;;5.20;2.13;;;;;;;12.98;44.32;95942.06;6257154;22;20151;-80
2023/05/31 03:03:27;;;;;;;1.73;1.50;;;;;;;13.03;44.30;95934.63;6309174;22;20508;-80
2023/05/31 03:05:54;;;;;;;3.90;2.20;;;;;;;12.98;44.52;95936.84;6308096;22;20172;-80
2023/05/31 03:08:19;;;;;;;3.30;1.87;;;;;;;12.94;44.59;95943.34;6255916;22;20168;-80
2023/05/31 03:10:45;;;;;;;4.47;2.13;;;;;;;12.91;44.69;95931.47;6255518;22;20178;-80
2023/05/31 03:13:10;;;;;;;3.10;1.70;;;;;;;12.93;44.92;95931.28;6256083;22;20254;-80
2023/05/31 03:15:35;;;;;;;4.67;1.80;;;;;;;12.82;44.95;95934.16;6281878;22;20452;-80
2023/05/31 03:18:01;;;;;;;6.30;1.83;;;;;;;12.82;45.25;95936.75;6255988;22;20158;-79
2023/05/31 03:20:26;;;;;;;5.67;2.10;;;;;;;12.89;44.93;95941.19;6256422;22;20690;-80
2023/05/31 03:22:51;;;;;;;7.67;2.10;;;;;;;12.91;44.78;95938.47;6283157;22;20636;-79
2023/05/31 03:25:17;;;;;;;6.30;2.20;;;;;;;12.89;45.21;95935.16;6282684;22;20172;-80
2023/05/31 03:27:42;;;;;;;4.87;1.97;;;;;;;12.77;45.27;95948.44;6279576;22;20296;-79
2023/05/31 03:30:07;;;;;;;3.73;2.20;;;;;;;12.88;45.35;95941.34;6253098;22;20156;-80
2023/05/31 03:32:33;;;;;;;3.27;1.83;;;;;;;12.76;45.40;95948.59;6280047;22;20179;-80
2023/05/31 03:34:58;;;;;;;4.03;1.73;;;;;;;12.84;44.90;95946.06;6256035;22;20464;-79
2023/05/31 03:37:23;;;;;;;6.97;2.10;;;;;;;12.92;45.02;95937.50;6281242;22;20205;-80
2023/05/31 03:39:49;;;;;;;4.70;2.20;;;;;;;12.77;45.62;95938.03;6257488;22;20160;-79
2023/05/31 03:42:15;;;;;;;4.50;2.00;;;;;;;12.94;45.05;95944.19;6282896;22;20175;-80
2023/05/31 03:44:40;;;;;;;6.40;2.33;;;;;;;12.86;44.90;95946.72;6255955;22;20163;-78
2023/05/31 03:47:06;;;;;;;3.77;2.20;;;;;;;12.93;45.29;95944.34;6257139;22;20179;-79
2023/05/31 03:49:31;;;;;;;6.10;2.43;;;;;;;13.03;44.96;95951.09;6257249;22;20155;-79
2023/05/31 03:51:57;;;;;;;4.23;2.10;;;;;;;13.19;44.59;95950.41;6260269;22;20184;-79
2023/05/31 03:54:22;;;;;;;5.47;2.17;;;;;;;13.73;43.66;95955.41;6284288;22;20230;-79
2023/05/31 03:56:47;;;;;;;2.87;1.87;;;;;;;14.94;40.74;95956.66;6258061;22;20159;-79
2023/05/31 03:59:13;;;;;;;3.50;2.17;;;;;;;16.01;38.55;95961.47;6284613;22;20471;-79
2023/05/31 04:01:38;;;;;;;5.50;2.47;;;;;;;17.03;36.76;95954.22;6284097;22;20729;-79
2023/05/31 04:04:03;;;;;;;4.60;2.23;;;;;;;17.87;35.30;95954.06;6257532;22;20185;-77
2023/05/31 04:06:28;;;;;;;2.58;2.10;;;;;;;18.24;34.25;95960.97;6256601;22;20179;-78
2023/05/31 04:08:54;;;;;;;3.47;2.13;;;;;;;18.92;32.61;95965.75;6283126;22;20152;-80
2023/05/31 04:11:20;;;;;;;3.28;1.63;;;;;;;19.01;32.57;95963.81;6280837;22;20178;-80
2023/05/31 04:13:45;;;;;;;4.05;2.13;;;;;;;19.81;31.78;95970.47;6255145;22;20235;-79
2023/05/31 04:16:10;;;;;;;3.30;1.88;;;;;;;20.62;30.82;95975.88;6279922;22;20484;-80
2023/05/31 04:18:36;;;;;;;5.00;2.30;;;;;;;19.81;31.40;95970.47;6280818;22;20159;-79
2023/05/31 04:21:01;;;;;;;3.08;1.85;;;;;;;19.82;31.35;95971.28;6275249;22;20180;-80
2023/05/31 04:23:26;;;;;;;4.47;1.92;;;;;;;18.94;32.73;95970.81;6275331;22;20176;-81
2023/05/31 04:25:52;;;;;;;3.58;2.00;;;;;;;19.70;31.64;95976.25;6248389;22;20191;-79
2023/05/31 04:28:18;;;;;;;3.60;1.85;;;;;;;21.05;29.75;95968.44;6275403;22;20149;-80
2023/05/31 04:30:45;;;;;;;5.28;1.90;;;;;;;21.53;29.20;95970.06;6250397;22;20152;-80
2023/05/31 04:33:11;;;;;;;3.65;2.00;;;;;;;21.47;29.12;95977.81;6274313;22;20305;-79
2023/05/31 04:35:36;;;;;;;3.35;1.70;;;;;;;23.40;26.84;95978.53;6274690;22;20190;-76
2023/05/31 04:38:02;;;;;;;3.22;2.03;;;;;;;24.61;24.82;95970.94;6273944;22;20149;-80
2023/05/31 04:40:31;;;;;;;3.78;2.03;;;;;;;23.93;25.37;95982.56;6274578;22;20586;-80
2023/05/31 04:42:57;;;;;;;3.80;1.70;;;;;;;25.25;24.25;95982.69;6274499;22;20173;-77
2023/05/31 04:45:23;;;;;;;3.25;2.00;;;;;;;25.55;24.30;95986.09;6274622;22;20226;-79
2023/05/31 04:47:49;;;;;;;2.65;1.92;;;;;;;25.60;22.93;95980.88;6275144;22;20152;-78
2023/05/31 04:50:15;;;;;;;4.47;2.10;;;;;;;25.92;22.98;95980.56;6255965;22;20157;-77
2023/05/31 04:52:41;;;;;;;4.53;2.25;;;;;;;25.83;22.74;95980.09;6284198;22;20541;-79
2023/05/31 04:55:07;;;;;;;2.92;1.98;;;;;;;26.09;22.34;95984.13;6253124;22;20161;-76
2023/05/31 04:57:32;;;;;;;4.57;2.13;;;;;;;25.79;22.87;95978.94;6274785;22;20175;-78
2023/05/31 04:59:57;;;;;;;3.92;2.10;;;;;;;26.11;22.65;95984.69;6259781;22;20210;-77
2023/05/31 05:02:23;;;;;;;2.70;1.80;;;;;;;26.46;22.67;95987.28;6261791;22;20172;-76
2023/05/31 05:04:48;;;;;;;2.70;1.80;;;;;;;26.14;22.90;95984.22;6263748;22;20156;-77
2023/05/31 05:07:14;;;;;;;3.55;2.00;;;;;;;26.65;21.92;95993.25;6264264;22;20198;-77
2023/05/31 05:09:40;;;;;;;3.88;1.60;;;;;;;28.08;19.87;95992.94;6257929;22;20160;-80
2023/05/31 05:12:06;;;;;;;5.15;2.03;;;;;;;28.04;20.84;95997.16;6276819;22;20207;-80
2023/05/31 05:14:32;;;;;;;3.80;2.47;;;;;;;27.61;20.72;95995.97;6275079;22;20594;-77
2023/05/31 05:16:57;;;;;;;5.72;2.65;;;;;;;27.88;20.25;95999.59;6248537;22;20194;-80
2023/05/31 05:19:22;;;;;;;4.70;1.90;;;;;;;26.81;21.55;95997.00;6254462;22;20163;-78
2023/05/31 05:21:48;;;;;;;5.28;2.20;;;;;;;27.53;20.70;95999.06;6280038;22;20194;-78
2023/05/31 05:24:13;;;;;;;4.05;1.98;;;;;;;26.75;21.99;95997.94;6254366;22;20159;-78
2023/05/31 05:26:38;;;;;;;4.65;1.90;;;;;;;26.74;22.04;95997.16;6253779;22;20183;-78
2023/05/31 05:29:04;;;;;;;3.97;2.42;;;;;;;27.46;21.03;96009.06;6280201;22;20175;-78
2023/05/31 05:31:30;;;;;;;2.20;1.63;;;;;;;27.89;20.25;96006.56;6280165;22;20190;-77
2023/05/31 05:33:55;;;;;;;2.85;1.98;;;;;;;27.30;21.18;96008.84;6280616;22;20151;-78
2023/05/31 05:36:21;;;;;;;4.95;2.08;;;;;;;26.76;21.52;96002.22;6279364;22;20158;-78
2023/05/31 05:38:46;;;;;;;3.90;2.08;;;;;;;26.50;21.91;96003.59;6307102;22;20148;-78
2023/05/31 05:41:12;;;;;;;4.85;2.25;;;;;;;27.22;21.84;96001.25;6254308;22;20156;-78
2023/05/31 05:43:40;;;;;;;3.65;1.73;;;;;;;28.15;20.35;96006.91;6254066;22;20175;-79
2023/05/31 05:46:06;;;;;;;4.53;2.08;;;;;;;26.37;22.39;96004.66;6253575;22;20882;-78
2023/05/31 05:48:31;;;;;;;3.80;2.08;;;;;;;26.98;21.97;96005.84;6279267;22;20204;-79
2023/05/31 05:50:57;;;;;;;6.07;1.88;;;;;;;28.31;20.15;96006.09;6280329;22;20152;-79
2023/05/31 05:53:22;;;;;;;3.13;2.17;;;;;;;26.85;22.17;96008.78;6307107;22;20193;-78
2023/05/31 05:55:51;;;;;;;4.05;1.90;;;;;;;27.33;21.67;96011.00;6306615;22;20140;-77
2023/05/31 05:58:16;;;;;;;3.22;1.90;;;;;;;27.15;21.43;96003.25;6279713;22;20147;-78
2023/05/31 06:00:44;;;;;;;4.30;2.00;;;;;;;28.07;21.23;96004.66;6253953;22;20155;-78
2023/05/31 06:03:09;;;;;;;4.57;2.10;;;;;;;27.22;21.47;96005.75;6280352;22;20175;-79
2023/05/31 06:05:35;;;;;;;4.68;2.10;;;;;;;27.62;20.85;96006.41;6254435;22;20230;-78
2023/05/31 06:08:00;;;;;;;3.65;2.20;;;;;;;27.28;21.45;96005.59;6279381;22;20178;-78
2023/05/31 06:10:26;;;;;;;3.63;2.10;;;;;;;27.08;21.10;96010.56;6254150;22;20156;-79
2023/05/31 06:12:52;;;;;;;3.30;1.88;;;;;;;26.56;22.88;96009.84;6279606;22;20171;-78
2023/05/31 06:15:17;;;;;;;3.55;2.05;;;;;;;28.03;20.75;96008.91;6279541;22;20152;-78
2023/05/31 06:17:43;;;;;;;5.32;2.55;;;;;;;27.24;21.46;96007.13;6253836;22;20160;-78
2023/05/31 06:20:10;;;;;;;4.05;2.20;;;;;;;27.16;21.79;96004.84;6307077;22;20168;-77
2023/05/31 06:22:35;;;;;;;4.68;2.10;;;;;;;26.98;22.17;96008.50;6279706;22;20507;-78
2023/05/31 06:25:00;;;;;;;5.63;2.28;;;;;;;28.86;20.31;96010.44;6307192;22;20158;-78
2023/05/31 06:27:26;;;;;;;4.38;2.25;;;;;;;28.24;20.70;96018.78;6253058;22;20167;-78
2023/05/31 06:29:57;;;;;;;4.10;1.95;;;;;;;27.13;22.25;96004.53;6253764;22;20587;-77
2023/05/31 06:32:22;;;;;;;3.85;1.80;;;;;;;26.28;23.13;96008.72;6280686;22;20224;-79
2023/05/31 06:34:48;;;;;;;3.20;2.30;;;;;;;26.94;22.53;96003.88;6279336;22;20246;-79
2023/05/31 06:37:14;;;;;;;4.25;2.30;;;;;;;26.86;22.19;96006.94;6252655;22;20237;-78
2023/05/31 06:39:39;;;;;;;7.72;2.25;;;;;;;27.17;22.12;96003.81;6279438;22;20179;-79
2023/05/31 06:42:05;;;;;;;4.25;2.20;;;;;;;27.17;22.29;96003.81;6253858;22;20175;-78
2023/05/31 06:44:30;;;;;;;2.45;1.95;;;;;;;26.88;22.31;95994.22;6280002;22;20268;-79
2023/05/31 06:46:55;;;;;;;4.28;2.40;;;;;;;27.95;21.29;95996.78;6253245;22;20179;-79
2023/05/31 06:49:21;;;;;;;4.85;2.20;;;;;;;27.68;21.65;95999.31;6251735;22;20187;-78
2023/05/31 06:51:46;;;;;;;4.60;2.20;;;;;;;27.36;22.44;95999.03;6253718;22;20183;-79
2023/05/31 06:54:11;;;;;;;4.47;1.95;;;;;;;26.77;22.93;95998.53;6253762;22;20159;-80
2023/05/31 06:56:37;;;;;;;4.57;2.15;;;;;;;26.17;23.15;95996.25;6253091;22;20156;-80
2023/05/31 06:59:02;;;;;;;4.00;2.00;;;;;;;25.85;23.43;95995.81;6253834;22;20168;-79
2023/05/31 07:01:28;;;;;;;6.00;2.33;;;;;;;26.21;24.23;95990.22;6279950;22;20151;-79
2023/05/31 07:03:53;;;;;;;5.82;2.72;;;;;;;26.32;23.51;95995.75;6279840;22;20148;-79
2023/05/31 07:06:19;;;;;;;3.88;2.15;;;;;;;26.61;23.10;95996.63;6306055;22;20176;-79
2023/05/31 07:08:45;;;;;;;4.53;1.98;;;;;;;26.10;24.26;95996.38;6306936;22;20586;-80
2023/05/31 07:11:12;;;;;;;5.88;2.33;;;;;;;24.79;26.00;95997.47;6253750;22;20151;-79
2023/05/31 07:13:37;;;;;;;4.88;2.70;;;;;;;25.69;24.37;95990.13;6279411;22;20171;-79
2023/05/31 07:16:02;;;;;;;4.07;2.08;;;;;;;25.11;25.25;95996.22;6306091;22;20148;-79
2023/05/31 07:18:27;;;;;;;5.45;2.38;;;;;;;24.74;26.13;95992.03;6253208;22;20178;-78
2023/05/31 07:20:56;;;;;;;5.53;2.83;;;;;;;24.55;26.24;95997.34;6253672;22;20505;-79
2023/05/31 07:23:22;;;;;;;5.80;3.08;;;;;;;24.23;27.19;95998.56;6256650;22;20175;-79
2023/05/31 07:25:47;;;;;;;7.38;3.10;;;;;;;24.26;26.58;95993.59;6255219;22;20190;-77
2023/05/31 07:28:12;;;;;;;5.25;2.53;;;;;;;23.59;27.73;95994.47;6255069;22;20159;-80
2023/05/31 07:30:37;;;;;;;9.10;2.88;;;;;;;24.53;27.33;96007.41;6255679;22;20493;-77
2023/05/31 07:33:03;;;;;;;7.97;3.67;;;;;;;24.07;26.68;95997.31;6256293;22;20179;-79
2023/05/31 07:35:28;;;;;;;6.82;2.58;;;;;;;23.96;27.78;95996.19;6281393;22;20148;-79
2023/05/31 07:37:53;;;;;;;6.68;2.80;;;;;;;23.15;29.34;95986.50;6281093;22;20148;-81
2023/05/31 07:40:19;;;;;;;5.70;2.33;;;;;;;24.36;27.36;95987.81;6282266;22;20210;-80
2023/05/31 07:42:45;;;;;;;3.60;2.47;;;;;;;24.21;26.95;95990.00;6256256;22;20633;-80
2023/05/31 07:45:10;;;;;;;8.25;2.55;;;;;;;23.73;28.13;95982.75;6282049;22;20159;-79
2023/05/31 07:47:36;;;;;;;7.80;2.58;;;;;;;23.24;28.80;95988.88;6253002;22;20152;-78
2023/05/31 07:50:01;;;;;;;9.18;2.92;;;;;;;23.26;29.30;95987.63;6281286;22;20577;-79
2023/05/31 07:52:26;;;;;;;3.85;2.60;;;;;;;22.98;29.25;95984.59;6281271;22;20626;-78
2023/05/31 07:54:52;;;;;;;4.97;2.40;;;;;;;23.37;29.11;95980.81;6281307;22;20162;-79
2023/05/31 07:57:17;;;;;;;3.92;2.83;;;;;;;22.52;30.63;95982.97;6280524;22;20150;-79
2023/05/31 07:59:43;;;;;;;5.97;2.58;;;;;;;22.69;30.65;95975.34;6255430;22;20164;-79
2023/05/31 08:02:08;;;;;;;10.07;2.67;;;;;;;22.83;30.50;95977.72;6280934;22;20254;-79
2023/05/31 08:04:33;;;;;;;7.53;2.90;;;;;;;22.76;30.06;95982.25;6281115;22;20156;-79
2023/05/31 08:06:58;;;;;;;4.30;2.58;;;;;;;23.22;29.62;95975.03;6254365;22;20180;-78
2023/05/31 08:09:24;;;;;;;6.25;2.70;;;;;;;22.41;31.02;95973.06;6280936;22;20148;-79
2023/05/31 08:11:51;;;;;;;8.35;2.38;;;;;;;22.82;30.55;95975.28;6255163;22;20641;-78
2023/05/31 08:14:17;;;;;;;18.45;5.28;;;;;;;23.17;30.45;95973.03;6281151;22;20144;-79
2023/05/31 08:16:42;;;;;;;7.65;2.65;;;;;;;22.53;30.63;95963.47;6254406;22;20475;-79
2023/05/31 08:19:07;;;;;;;10.07;3.85;;;;;;;22.32;31.36;95970.66;6255301;22;20164;-79
2023/05/31 08:21:36;;;;;;;37.83;9.55;;;;;;;22.09;30.97;95970.38;6280978;22;20197;-78
2023/05/31 08:24:02;;;;;;;12.00;3.65;;;;;;;22.11;31.73;95970.97;6281126;22;20188;-78
2023/05/31 08:26:27;;;;;;;6.00;2.67;;;;;;;22.57;31.43;95970.75;6254978;22;20250;-78
2023/05/31 08:28:53;;;;;;;8.15;2.80;;;;;;;22.49;31.38;95967.53;6280872;22;20264;-80
2023/05/31 08:31:18;;;;;;;7.25;2.78;;;;;;;22.25;31.08;95977.00;6255289;22;20770;-80
2023/05/31 08:33:57;;;;;;;5.53;2.70;;;;;;;21.65;32.36;95969.25;6255281;22;20203;-78
2023/05/31 08:36:23;;;;;;;6.30;2.85;;;;;;;22.19;31.51;95972.56;6280281;22;20148;-79
2023/05/31 08:38:49;;;;;;;6.10;2.40;;;;;;;21.49;32.52;95974.94;6255350;22;20213;-79
2023/05/31 08:41:14;;;;;;;4.22;2.75;;;;;;;22.02;32.37;95964.25;6281102;22;20241;-79
2023/05/31 08:43:40;;;;;;;4.90;2.80;;;;;;;22.01;31.79;95962.63;6255053;22;20191;-79
2023/05/31 08:46:06;;;;;;;5.82;2.95;;;;;;;21.97;31.81;95958.78;6254071;22;20183;-78
2023/05/31 08:48:53;;;;;;;4.78;2.92;;;;;;;21.13;33.41;95967.41;6279505;22;20230;-78
2023/05/31 08:51:19;;;;;;;6.85;2.67;;;;;;;21.11;32.31;95957.03;6281457;22;20148;-79
2023/05/31 08:53:45;;;;;;;6.63;2.45;;;;;;;21.15;34.35;95955.63;6255300;22;20248;-78
2023/05/31 08:56:11;;;;;;;4.53;2.65;;;;;;;21.61;33.00;95957.44;6280357;22;20144;-80
2023/05/31 08:58:37;;;;;;;5.40;3.33;;;;;;;21.19;32.99;95958.66;6280640;22;20151;-78
2023/05/31 09:01:03;;;;;;;7.13;2.50;;;;;;;21.75;31.72;95951.13;6254849;22;20160;-79
2023/05/31 09:03:28;;;;;;;6.60;2.90;;;;;;;21.64;32.12;95957.00;6255012;22;20255;-78
2023/05/31 09:05:56;;;;;;;6.47;2.33;;;;;;;21.83;32.69;95954.56;6279805;22;20237;-79
2023/05/31 09:08:22;;;;;;;9.57;3.10;;;;;;;22.19;31.82;95952.22;6255635;22;20175;-79
2023/05/31 09:10:47;;;;;;;5.57;2.60;;;;;;;21.60;31.67;95952.38;6254996;22;20257;-79
2023/05/31 09:13:13;;;;;;;8.88;2.83;;;;;;;21.69;32.45;95959.88;6280438;22;20224;-78
2023/05/31 09:15:39;;;;;;;6.88;2.75;;;;;;;21.50;32.00;95944.88;6255011;22;20152;-78
2023/05/31 09:18:12;;;;;;;3.70;2.63;;;;;;;21.92;31.72;95958.59;6279912;22;20153;-79
2023/05/31 09:20:38;;;;;;;4.45;2.75;;;;;;;21.88;31.76;95949.44;6255003;22;20167;-79
2023/05/31 09:23:06;;;;;;;5.10;2.50;;;;;;;22.54;31.74;95954.50;6280451;22;20270;-79
2023/05/31 09:25:42;;;;;;;9.80;3.17;;;;;;;22.42;32.81;95953.53;6281202;22;20175;-79
2023/05/31 09:28:08;;;;;;;5.60;2.50;;;;;;;22.92;30.77;95953.66;6280428;22;20146;-80
2023/05/31 09:30:34;;;;;;;7.40;2.83;;;;;;;22.13;32.30;95953.06;6280854;22;20262;-78
2023/05/31 09:33:00;;;;;;;7.32;3.00;;;;;;;22.27;31.71;95951.97;6280674;22;20657;-79
2023/05/31 09:35:27;;;;;;;6.32;3.25;;;;;;;22.25;30.80;95956.66;6307162;22;20197;-79
2023/05/31 09:37:53;;;;;;;4.20;2.75;;;;;;;22.10;31.64;95956.13;6253889;22;20183;-77
2023/05/31 09:40:25;;;;;;;14.00;2.97;;;;;;;22.19;31.45;95960.16;6280343;22;20174;-79
2023/05/31 09:42:52;;;;;;;7.03;2.80;;;;;;;22.02;30.66;95956.31;6254853;22;20653;-78
2023/05/31 09:45:18;;;;;;;6.03;2.83;;;;;;;22.11;30.61;95955.09;6280251;22;20156;-79
2023/05/31 09:47:44;;;;;;;7.78;2.60;;;;;;;22.24;30.65;95962.97;6251714;22;20939;-79
2023/05/31 09:50:20;;;;;;;5.97;2.53;;;;;;;22.53;30.11;95956.34;6254728;22;20225;-80
2023/05/31 09:52:47;;;;;;;8.63;2.97;;;;;;;22.48;30.48;95950.84;6307026;22;20176;-79
2023/05/31 09:55:14;;;;;;;5.80;3.00;;;;;;;22.59;31.28;95954.66;6254347;22;20172;-78
2023/05/31 09:57:40;;;;;;;5.90;2.95;;;;;;;22.58;29.33;95958.31;6253933;22;20160;-80
2023/05/31 10:00:17;;;;;;;4.93;2.95;;;;;;;22.57;29.89;95946.94;6279571;22;20226;-79
2023/05/31 10:02:48;;;;;;;4.70;2.53;;;;;;;22.58;29.75;95945.09;6254720;22;20206;-80
2023/05/31 10:05:14;;;;;;;7.82;2.75;;;;;;;22.60;30.64;95937.75;6279704;22;20181;-79
2023/05/31 10:07:41;;;;;;;6.97;2.60;;;;;;;22.83;31.29;95963.69;6279250;22;20164;-79
2023/05/31 10:10:07;;;;;;;10.73;3.28;;;;;;;22.52;30.63;95943.28;6280149;22;20152;-79
2023/05/31 10:12:37;;;;;;;4.75;2.83;;;;;;;22.59;31.04;95954.66;6280107;22;20214;-78
2023/05/31 10:15:08;;;;;;;5.95;2.88;;;;;;;22.57;31.70;95962.00;6279995;22;20179;-79
2023/05/31 10:17:38;;;;;;;5.13;2.60;;;;;;;22.39;31.38;95965.34;6254481;22;20674;-79
2023/05/31 10:20:06;;;;;;;6.75;2.80;;;;;;;22.34;30.78;95944.81;6274311;22;20196;-79
2023/05/31 10:22:33;;;;;;;11.48;3.35;;;;;;;22.42;30.47;95953.53;6274724;22;20177;-78
2023/05/31 10:25:03;;;;;;;7.18;2.90;;;;;;;22.93;30.48;95945.50;6248761;22;20153;-79
2023/05/31 10:27:31;;;;;;;4.47;2.67;;;;;;;22.41;29.75;95947.41;6273600;22;20172;-79
2023/05/31 10:30:04;;;;;;;6.30;2.60;;;;;;;22.81;29.26;95952.50;6249152;22;20206;-79
2023/05/31 10:32:33;;;;;;;4.95;2.78;;;;;;;23.07;29.90;95946.22;6298612;22;20226;-78
2023/05/31 10:34:58;;;;;;;5.88;2.58;;;;;;;23.32;29.07;95932.94;6299822;22;20183;-78
2023/05/31 10:37:24;;;;;;;4.45;2.40;;;;;;;23.42;28.49;95942.06;6299445;22;20614;-80
2023/05/31 10:39:54;;;;;;;7.22;2.67;;;;;;;22.82;29.18;95936.38;6300212;22;20217;-79
2023/05/31 10:42:30;;;;;;;7.00;2.38;;;;;;;22.45;29.31;95938.06;6275649;22;20179;-79
2023/05/31 10:45:08;;;;;;;4.75;2.17;;;;;;;22.06;28.39;95931.88;6275775;22;20475;-79
2023/05/31 10:47:42;;;;;;;4.78;2.45;;;;;;;22.54;30.12;95946.56;6271688;22;20152;-79
2023/05/31 10:50:07;;;;;;;5.53;2.78;;;;;;;22.92;28.87;95932.47;6300042;22;20459;-79
2023/05/31 10:52:33;;;;;;;7.38;2.60;;;;;;;22.84;28.95;95933.53;6275483;22;20179;-79
2023/05/31 10:55:18;;;;;;;3.90;2.55;;;;;;;23.11;29.43;95926.22;6274000;22;20487;-79
2023/05/31 10:57:45;;;;;;;6.30;2.45;;;;;;;23.05;29.08;95922.59;6299700;22;20160;-79
2023/05/31 11:00:11;;;;;;;5.90;2.50;;;;;;;22.84;27.12;95921.13;6274249;22;20172;-79
2023/05/31 11:02:45;;;;;;;8.25;2.70;;;;;;;23.03;28.04;95919.34;6248769;22;20564;-80
2023/05/31 11:05:27;;;;;;;6.57;2.50;;;;;;;23.64;28.47;95910.66;6248358;22;20176;-79
2023/05/31 11:07:53;;;;;;;4.28;2.55;;;;;;;23.39;28.11;95915.16;6299354;22;20148;-79
2023/05/31 11:10:30;;;;;;;4.18;2.47;;;;;;;23.57;27.35;95919.66;6248372;22;20172;-78
2023/05/31 11:12:57;;;;;;;5.38;2.70;;;;;;;23.85;27.84;95922.66;6248650;22;20263;-79
2023/05/31 11:15:22;;;;;;;4.40;2.42;;;;;;;23.52;28.40;95924.84;6275762;22;20148;-80
2023/05/31 11:17:52;;;;;;;3.70;2.50;;;;;;;23.56;26.64;95928.66;6273370;22;20167;-79
2023/05/31 11:20:18;;;;;;;4.47;2.40;;;;;;;24.17;25.92;95918.00;6279197;22;20197;-79
2023/05/31 11:22:43;;;;;;;5.18;2.20;;;;;;;24.21;26.23;95918.38;6278768;22;20171;-78
2023/05/31 11:25:18;;;;;;;5.60;2.53;;;;;;;24.29;25.93;95920.69;6278916;22;20620;-79
2023/05/31 11:27:48;;;;;;;5.22;2.28;;;;;;;24.37;27.07;95912.44;6253435;22;20179;-78
2023/05/31 11:30:14;;;;;;;6.95;2.70;;;;;;;24.00;26.10;95916.97;6278751;22;20156;-78
2023/05/31 11:32:39;;;;;;;4.50;2.42;;;;;;;23.18;27.18;95906.59;6253178;22;20251;-78